WetterOnline ( https://www.wetteronline.de )

Wetter aktuell Potsdam

Aktuelles Wetter: Potsdam (100m)

6-stündlich | Neueste Meldungen
Ortszeit Temperatur Wetter
Sa, 30.05. 2:00 9.4° C fast wolkenlos
Fr, 29.05. 20:00 16.6° C bedeckt
Fr, 29.05. 14:00 21.6° C wolkig
Fr, 29.05. 8:00 11.4° C wolkenlos
Fr, 29.05. 2:00 9.5° C leicht bewölkt
Do, 28.05. 20:00 16.9° C wolkenlos
Do, 28.05. 14:00 17.6° C bewölkt
Do, 28.05. 8:00 11.0° C leicht bewölkt
Ortszeit Temperatur Wetter
Sa, 30.05. 6:00 7.5° C leicht bewölkt
Sa, 30.05. 5:50 7.5° C leicht bewölkt
Sa, 30.05. 5:40 7.3° C wolkig
Sa, 30.05. 5:30 7.5° C bewölkt
Sa, 30.05. 5:20 7.5° C bewölkt
Sa, 30.05. 5:10 7.3° C wolkig
Sa, 30.05. 5:00 7.4° C bewölkt
Sa, 30.05. 4:30 8.2° C bedeckt
Sa, 30.05. 4:00 8.9° C bedeckt
Sa, 30.05. 3:30 9.2° C leicht bewölkt
Sa, 30.05. 3:00 9.2° C wolkenlos
Ortszeit Relative Feuchte Sichtweite
Sa, 30.05. 2:00 78% 65 km
Fr, 29.05. 20:00 49% >70 km
Fr, 29.05. 14:00 30% 60 km
Fr, 29.05. 8:00 64% 55 km
Fr, 29.05. 2:00 75% 65 km
Do, 28.05. 20:00 41% 60 km
Do, 28.05. 14:00 46% 50 km
Do, 28.05. 8:00 79% 40 km
Ortszeit Relative Feuchte Sichtweite
Sa, 30.05. 6:00 84% 55 km
Sa, 30.05. 5:50 84% -
Sa, 30.05. 5:40 85% -
Sa, 30.05. 5:30 84% >70 km
Sa, 30.05. 5:20 84% -
Sa, 30.05. 5:10 84% -
Sa, 30.05. 5:00 83% 65 km
Sa, 30.05. 4:30 79% 50 km
Sa, 30.05. 4:00 77% 55 km
Sa, 30.05. 3:30 76% 60 km
Sa, 30.05. 3:00 79% 55 km
Ortszeit Niederschlagsmenge Niederschlagsart
Sa, 30.05. 2:00 0.0 l/m2 in 6 Std. -
Fr, 29.05. 20:00 0.0 l/m2 in 12 Std. -
Fr, 29.05. 14:00 0.0 l/m2 in 6 Std. -
Fr, 29.05. 8:00 0.0 l/m2 in 12 Std. -
Fr, 29.05. 2:00 0.0 l/m2 in 6 Std. -
Do, 28.05. 20:00 0.0 l/m2 in 12 Std. -
Do, 28.05. 14:00 0.0 l/m2 in 6 Std. -
Do, 28.05. 8:00 0.1 l/m2 in 12 Std. Regen
Ortszeit Niederschlagsmenge Niederschlagsart
Sa, 30.05. 6:00 0.0 l/m2 in 1 Std. -
Sa, 30.05. 5:50 keine Meldung -
Sa, 30.05. 5:40 keine Meldung -
Sa, 30.05. 5:30 0.0 l/m2 in 1 Std. -
Sa, 30.05. 5:20 keine Meldung -
Sa, 30.05. 5:10 keine Meldung -
Sa, 30.05. 5:00 0.0 l/m2 in 1 Std. -
Sa, 30.05. 4:30 0.0 l/m2 in 1 Std. -
Sa, 30.05. 4:00 0.0 l/m2 in 1 Std. -
Sa, 30.05. 3:30 0.0 l/m2 in 1 Std. -
Sa, 30.05. 3:00 0.0 l/m2 in 1 Std. -
Ortszeit Stärke Spitze Richtung
km/h Bft. km/h Grad Sektor
Sa, 30.05. 2:00 11 2 32 30° NO
Fr, 29.05. 20:00 9 2 30 40° NO
Fr, 29.05. 14:00 17 3 30 30° NO
Fr, 29.05. 8:00 11 2 24 80° O
Fr, 29.05. 2:00 14 3 32 60° NO
Do, 28.05. 20:00 17 3 43 30° NO
Do, 28.05. 14:00 11 2 40 350° N
Do, 28.05. 8:00 11 2 29 310° NW
Ortszeit Stärke Spitze Richtung
km/h Bft. km/h Grad Sektor
Sa, 30.05. 6:00 7 2 14 30° NO
Sa, 30.05. 5:50 7 2 - 30° NO
Sa, 30.05. 5:40 9 2 - 40° NO
Sa, 30.05. 5:30 11 2 14 50° NO
Sa, 30.05. 5:20 11 2 - 50° NO
Sa, 30.05. 5:10 9 2 - 40° NO
Sa, 30.05. 5:00 7 2 18 30° NO
Sa, 30.05. 4:30 7 2 18 30° NO
Sa, 30.05. 4:00 11 2 22 40° NO
Sa, 30.05. 3:30 13 3 20 40° NO
Sa, 30.05. 3:00 13 3 20 40° NO
Ortszeit Untergrenze Bedeckung Gattung
total tief tief mittel hoch
Sa, 30.05. 2:00 7200 m 1/8 0/8 - - -
Fr, 29.05. 20:00 2100 m 8/8 8/8 - - -
Fr, 29.05. 14:00 2700 m 7/8 7/8 - - -
Fr, 29.05. 8:00 - 0/8 0/8 - - -
Fr, 29.05. 2:00 8700 m 3/8 0/8 - - -
Do, 28.05. 20:00 - 0/8 0/8 - - -
Do, 28.05. 14:00 1500 m 7/8 7/8 - - -
Do, 28.05. 8:00 4200 m 3/8 3/8 - - -
Ortszeit Bedeckungsgrad in Achtel und Wolkenuntergrenze
Sa, 30.05. 6:00 6(7500m) 6(7800m)
Sa, 30.05. 5:50 6(7500m) 6(7800m)
Sa, 30.05. 5:40 2(2100m) 6(7500m) 6(7800m)
Sa, 30.05. 5:30 6(2100m) 7(7200m)
Sa, 30.05. 5:20 6(2100m) 7(7200m)
Sa, 30.05. 5:10 4(2100m) 7(7200m)
Sa, 30.05. 5:00 6(6600m) 8(7200m) 7(7200m)
Sa, 30.05. 4:30 8(6900m)
Sa, 30.05. 4:00 8(6900m)
Sa, 30.05. 3:30 3(7500m) 6(7500m)
Sa, 30.05. 3:00 keine Wolken
Ortszeit Luftdruck NN (hPa) Tendenz (hPa in 3 Std.)
Sa, 30.05. 2:00 1026 0,0
Fr, 29.05. 20:00 1026 - 0,8
Fr, 29.05. 14:00 1028 - 1,5
Fr, 29.05. 8:00 1031 + 0,4
Fr, 29.05. 2:00 1030 + 0,5
Do, 28.05. 20:00 1028 + 0,2
Do, 28.05. 14:00 1029 - 0,8
Do, 28.05. 8:00 1031 + 0,5
Ortszeit Luftdruck NN (hPa) Tendenz (hPa in 3 Std.)
Sa, 30.05. 6:00 1027 + 0,1
Sa, 30.05. 5:50 1027 keine Meldung
Sa, 30.05. 5:40 1027 keine Meldung
Sa, 30.05. 5:30 1027 + 0,2
Sa, 30.05. 5:20 1027 keine Meldung
Sa, 30.05. 5:10 1027 keine Meldung
Sa, 30.05. 5:00 1027 + 0,1
Sa, 30.05. 4:30 1027 + 0,1
Sa, 30.05. 4:00 1027 + 0,3
Sa, 30.05. 3:30 1026 0,0
Sa, 30.05. 3:00 1026 0,0
Ortszeit Schneehöhe (cm)
Sa, 30.05. 2:00 -
Fr, 29.05. 20:00 -
Fr, 29.05. 14:00 -
Fr, 29.05. 8:00 -
Fr, 29.05. 2:00 -
Do, 28.05. 20:00 -
Do, 28.05. 14:00 -
Do, 28.05. 8:00 -
Ortszeit Schneehöhe (cm)
Sa, 30.05. 6:00 -
Sa, 30.05. 5:50 -
Sa, 30.05. 5:40 -
Sa, 30.05. 5:30 -
Sa, 30.05. 5:20 -
Sa, 30.05. 5:10 -
Sa, 30.05. 5:00 -
Sa, 30.05. 4:30 -
Sa, 30.05. 4:00 -
Sa, 30.05. 3:30 -
Sa, 30.05. 3:00 -
Link zu dieser Seite / Seite empfehlen

Das Wetter in ...